Overview Statistics Trail Chart Weather Telemetry Raw packets
 

This is the latest recevied weather packets stored in our database for station/object W4UWO. If no packets are shown the sender has not sent any weather packets the latest 10 day(s).

<< 39 40 41 42 43 44 45 >>
Time Temp. Humidity Pressure Rain* Wind** Luminosity Snow
1788356534 28.89° C 69% 1021.2 hPa 0 mm - 309 W/m² -
1788356229 28.33° C 71% 1021.2 hPa 0 mm - 88 W/m² -
1788355928 27.78° C 72% 1021.3 hPa 0 mm - 275 W/m² -
1788355624 27.22° C 75% 1021.3 hPa 0 mm - 84 W/m² -
1788355319 27.78° C 73% 1021.2 hPa 0 mm - 81 W/m² -
1788355014 27.22° C 74% 1021.3 hPa 0 mm - 78 W/m² -
1788354710 27.22° C 74% 1021.2 hPa 0 mm - 75 W/m² -
1788354406 27.22° C 73% 1021.2 hPa 0 mm - 74 W/m² -
1788354101 27.78° C 72% 1021 hPa 0 mm - 175 W/m² -
1788353797 27.22° C 73% 1021.2 hPa 0 mm - 160 W/m² -
1788353492 26.67° C 75% 1021 hPa 0 mm - 144 W/m² -
1788353189 26.11° C 77% 1021.3 hPa 0 mm - 131 W/m² -
1788352888 25.56° C 78% 1020.9 hPa 0 mm - 118 W/m² -
1788352585 25.56° C 79% 1021.1 hPa 0 mm - 105 W/m² -
1788352285 25° C 79% 1021.2 hPa 0 mm - 93 W/m² -
1788351985 25° C 80% 1021.1 hPa 0 mm - 83 W/m² -
1788351680 24.44° C 81% 1021.1 hPa 0 mm - 73 W/m² -
1788351380 23.89° C 84% 1020.9 hPa 0 mm - 64 W/m² -
1788351075 23.33° C 86% 1020.8 hPa 0 mm - 55 W/m² -
1788350772 22.78° C 88% 1021 hPa 0 mm - 47 W/m² -
1788350477 22.22° C 89% 1020.8 hPa 0 mm - 40 W/m² -
1788350162 22.22° C 90% 1020.8 hPa 0 mm - 34 W/m² -
1788349858 22.22° C 91% 1020.8 hPa 0 mm - 27 W/m² -
1788349554 22.22° C 91% 1020.6 hPa 0 mm - 23 W/m² -
1788349254 22.22° C 91% 1020.4 hPa 0 mm - 18 W/m² -

* Rain latest hour (hover to see other rain measurements)
** Current wind speed in m/s (hover to see current wind gust speed)